sensor_id;sensor_type;location;lat;lon;timestamp;P1;durP1;ratioP1;P2;durP2;ratioP2
1747;SDS011;871;47.034;15.394;2022-12-28T05:02:32;26.02;;;5.45;;
1747;SDS011;871;47.034;15.394;2022-12-28T05:04:58;32.45;;;7.65;;
1747;SDS011;871;47.034;15.394;2022-12-28T05:07:24;36.75;;;6.95;;
1747;SDS011;871;47.034;15.394;2022-12-28T05:09:50;28.10;;;6.15;;
1747;SDS011;871;47.034;15.394;2022-12-28T05:12:16;27.98;;;6.40;;
1747;SDS011;871;47.034;15.394;2022-12-28T05:14:43;31.77;;;6.70;;
1747;SDS011;871;47.034;15.394;2022-12-28T05:17:09;30.58;;;6.45;;
1747;SDS011;871;47.034;15.394;2022-12-28T05:19:35;31.45;;;7.20;;
1747;SDS011;871;47.034;15.394;2022-12-28T05:22:01;33.63;;;7.78;;
1747;SDS011;871;47.034;15.394;2022-12-28T05:24:27;33.85;;;6.28;;
1747;SDS011;871;47.034;15.394;2022-12-28T05:26:53;34.28;;;7.43;;
1747;SDS011;871;47.034;15.394;2022-12-28T05:29:19;32.38;;;6.40;;
1747;SDS011;871;47.034;15.394;2022-12-28T05:31:45;37.22;;;7.63;;
1747;SDS011;871;47.034;15.394;2022-12-28T05:34:11;37.75;;;7.07;;
1747;SDS011;871;47.034;15.394;2022-12-28T05:36:37;37.70;;;7.20;;
1747;SDS011;871;47.034;15.394;2022-12-28T05:39:03;36.80;;;7.47;;
1747;SDS011;871;47.034;15.394;2022-12-28T05:41:30;39.00;;;7.13;;
1747;SDS011;871;47.034;15.394;2022-12-28T05:43:57;38.83;;;7.93;;
1747;SDS011;871;47.034;15.394;2022-12-28T05:46:30;38.95;;;7.70;;
1747;SDS011;871;47.034;15.394;2022-12-28T05:48:56;37.15;;;7.55;;
1747;SDS011;871;47.034;15.394;2022-12-28T05:51:23;37.45;;;7.47;;
1747;SDS011;871;47.034;15.394;2022-12-28T05:53:50;38.35;;;6.72;;
1747;SDS011;871;47.034;15.394;2022-12-28T05:56:17;38.63;;;7.40;;
1747;SDS011;871;47.034;15.394;2022-12-28T05:58:44;37.40;;;6.88;;
1747;SDS011;871;47.034;15.394;2022-12-28T06:03:37;41.08;;;7.43;;
1747;SDS011;871;47.034;15.394;2022-12-28T06:06:04;38.20;;;6.70;;
1747;SDS011;871;47.034;15.394;2022-12-28T06:08:30;39.55;;;7.03;;
1747;SDS011;871;47.034;15.394;2022-12-28T06:11:00;38.45;;;6.60;;
1747;SDS011;871;47.034;15.394;2022-12-28T06:13:27;39.00;;;6.50;;
1747;SDS011;871;47.034;15.394;2022-12-28T06:15:53;41.85;;;7.93;;
1747;SDS011;871;47.034;15.394;2022-12-28T06:18:19;40.58;;;7.40;;
1747;SDS011;871;47.034;15.394;2022-12-28T06:20:45;37.83;;;6.72;;
1747;SDS011;871;47.034;15.394;2022-12-28T06:23:11;42.17;;;8.57;;
1747;SDS011;871;47.034;15.394;2022-12-28T06:25:37;42.53;;;7.63;;
1747;SDS011;871;47.034;15.394;2022-12-28T06:28:03;39.58;;;7.65;;
1747;SDS011;871;47.034;15.394;2022-12-28T06:30:29;38.25;;;6.53;;
1747;SDS011;871;47.034;15.394;2022-12-28T06:32:55;40.53;;;6.97;;
1747;SDS011;871;47.034;15.394;2022-12-28T06:35:22;38.78;;;7.82;;
1747;SDS011;871;47.034;15.394;2022-12-28T06:37:48;41.75;;;8.68;;
1747;SDS011;871;47.034;15.394;2022-12-28T06:40:14;45.65;;;9.70;;
1747;SDS011;871;47.034;15.394;2022-12-28T06:42:41;38.70;;;7.75;;
1747;SDS011;871;47.034;15.394;2022-12-28T06:45:07;43.53;;;7.78;;
1747;SDS011;871;47.034;15.394;2022-12-28T06:47:33;41.20;;;7.95;;
1747;SDS011;871;47.034;15.394;2022-12-28T06:50:01;40.78;;;7.75;;
1747;SDS011;871;47.034;15.394;2022-12-28T06:52:27;42.00;;;9.05;;
1747;SDS011;871;47.034;15.394;2022-12-28T06:54:53;39.50;;;7.93;;
1747;SDS011;871;47.034;15.394;2022-12-28T06:57:19;40.88;;;8.40;;
1747;SDS011;871;47.034;15.394;2022-12-28T06:59:45;38.75;;;8.23;;
1747;SDS011;871;47.034;15.394;2022-12-28T07:02:11;39.88;;;8.50;;
1747;SDS011;871;47.034;15.394;2022-12-28T07:04:38;42.78;;;9.05;;
1747;SDS011;871;47.034;15.394;2022-12-28T07:07:04;43.50;;;9.00;;
1747;SDS011;871;47.034;15.394;2022-12-28T07:09:30;39.58;;;7.63;;
1747;SDS011;871;47.034;15.394;2022-12-28T07:11:56;41.63;;;8.25;;
1747;SDS011;871;47.034;15.394;2022-12-28T07:14:22;39.83;;;7.93;;
1747;SDS011;871;47.034;15.394;2022-12-28T07:16:48;38.95;;;8.00;;
1747;SDS011;871;47.034;15.394;2022-12-28T07:19:14;43.38;;;7.05;;
1747;SDS011;871;47.034;15.394;2022-12-28T07:21:40;41.30;;;9.05;;
1747;SDS011;871;47.034;15.394;2022-12-28T07:24:07;40.13;;;7.95;;
1747;SDS011;871;47.034;15.394;2022-12-28T07:26:33;41.03;;;9.18;;
1747;SDS011;871;47.034;15.394;2022-12-28T07:29:00;47.67;;;10.23;;
1747;SDS011;871;47.034;15.394;2022-12-28T07:31:30;41.70;;;8.98;;
1747;SDS011;871;47.034;15.394;2022-12-28T07:33:58;39.28;;;7.90;;
1747;SDS011;871;47.034;15.394;2022-12-28T07:36:25;39.70;;;7.75;;
1747;SDS011;871;47.034;15.394;2022-12-28T07:38:53;41.38;;;8.82;;
1747;SDS011;871;47.034;15.394;2022-12-28T07:41:20;42.03;;;9.50;;
1747;SDS011;871;47.034;15.394;2022-12-28T07:43:46;42.83;;;8.80;;
1747;SDS011;871;47.034;15.394;2022-12-28T07:46:16;43.20;;;8.45;;
1747;SDS011;871;47.034;15.394;2022-12-28T07:48:46;40.13;;;7.47;;
1747;SDS011;871;47.034;15.394;2022-12-28T07:53:45;42.85;;;9.43;;
1747;SDS011;871;47.034;15.394;2022-12-28T07:56:11;43.45;;;9.65;;
1747;SDS011;871;47.034;15.394;2022-12-28T07:58:38;43.75;;;9.77;;
1747;SDS011;871;47.034;15.394;2022-12-28T08:03:33;48.15;;;10.90;;
1747;SDS011;871;47.034;15.394;2022-12-28T08:06:18;40.75;;;9.02;;
1747;SDS011;871;47.034;15.394;2022-12-28T08:08:53;41.58;;;8.48;;
1747;SDS011;871;47.034;15.394;2022-12-28T08:11:20;45.28;;;9.50;;
1747;SDS011;871;47.034;15.394;2022-12-28T08:13:47;46.72;;;10.63;;
1747;SDS011;871;47.034;15.394;2022-12-28T08:16:14;48.33;;;11.50;;
1747;SDS011;871;47.034;15.394;2022-12-28T08:18:44;48.30;;;12.13;;
1747;SDS011;871;47.034;15.394;2022-12-28T08:21:29;62.13;;;10.93;;
1747;SDS011;871;47.034;15.394;2022-12-28T08:23:56;47.42;;;9.68;;
1747;SDS011;871;47.034;15.394;2022-12-28T08:26:27;45.80;;;10.45;;
1747;SDS011;871;47.034;15.394;2022-12-28T08:28:54;42.10;;;10.15;;
1747;SDS011;871;47.034;15.394;2022-12-28T08:31:22;46.00;;;11.18;;
1747;SDS011;871;47.034;15.394;2022-12-28T08:33:49;43.40;;;9.45;;
1747;SDS011;871;47.034;15.394;2022-12-28T08:36:15;43.13;;;9.32;;
1747;SDS011;871;47.034;15.394;2022-12-28T08:38:42;46.67;;;11.25;;
1747;SDS011;871;47.034;15.394;2022-12-28T08:41:10;46.70;;;12.15;;
1747;SDS011;871;47.034;15.394;2022-12-28T08:43:36;49.92;;;11.60;;
1747;SDS011;871;47.034;15.394;2022-12-28T08:46:03;48.60;;;12.50;;
1747;SDS011;871;47.034;15.394;2022-12-28T08:48:30;45.53;;;12.15;;
1747;SDS011;871;47.034;15.394;2022-12-28T08:51:00;45.30;;;11.30;;
1747;SDS011;871;47.034;15.394;2022-12-28T08:53:26;46.47;;;9.05;;
1747;SDS011;871;47.034;15.394;2022-12-28T08:55:53;46.30;;;9.73;;
1747;SDS011;871;47.034;15.394;2022-12-28T08:58:19;44.65;;;10.20;;
1747;SDS011;871;47.034;15.394;2022-12-28T09:00:45;49.70;;;10.32;;
1747;SDS011;871;47.034;15.394;2022-12-28T09:03:11;43.67;;;10.07;;
1747;SDS011;871;47.034;15.394;2022-12-28T09:05:38;44.47;;;9.77;;
1747;SDS011;871;47.034;15.394;2022-12-28T09:08:04;47.75;;;8.98;;
1747;SDS011;871;47.034;15.394;2022-12-28T09:10:32;44.40;;;8.23;;
1747;SDS011;871;47.034;15.394;2022-12-28T09:12:59;45.95;;;8.63;;
1747;SDS011;871;47.034;15.394;2022-12-28T09:15:25;44.25;;;7.80;;
1747;SDS011;871;47.034;15.394;2022-12-28T09:17:51;43.00;;;7.57;;
1747;SDS011;871;47.034;15.394;2022-12-28T09:20:17;44.65;;;9.25;;
1747;SDS011;871;47.034;15.394;2022-12-28T09:22:44;44.63;;;8.20;;
1747;SDS011;871;47.034;15.394;2022-12-28T09:25:10;48.03;;;9.00;;
1747;SDS011;871;47.034;15.394;2022-12-28T09:27:36;44.13;;;8.68;;
1747;SDS011;871;47.034;15.394;2022-12-28T09:30:02;43.67;;;7.80;;
1747;SDS011;871;47.034;15.394;2022-12-28T09:32:28;43.35;;;8.00;;
1747;SDS011;871;47.034;15.394;2022-12-28T09:34:54;43.88;;;7.88;;
1747;SDS011;871;47.034;15.394;2022-12-28T09:37:20;44.25;;;8.07;;
1747;SDS011;871;47.034;15.394;2022-12-28T09:39:47;46.45;;;9.07;;
1747;SDS011;871;47.034;15.394;2022-12-28T09:47:15;46.38;;;9.18;;
1747;SDS011;871;47.034;15.394;2022-12-28T09:49:44;47.25;;;9.10;;
1747;SDS011;871;47.034;15.394;2022-12-28T09:54:57;52.67;;;9.95;;
1747;SDS011;871;47.034;15.394;2022-12-28T09:57:26;47.67;;;9.15;;
1747;SDS011;871;47.034;15.394;2022-12-28T09:59:58;48.97;;;9.52;;
1747;SDS011;871;47.034;15.394;2022-12-28T10:02:27;46.88;;;9.38;;
1747;SDS011;871;47.034;15.394;2022-12-28T10:04:54;47.28;;;8.70;;
1747;SDS011;871;47.034;15.394;2022-12-28T10:07:20;46.05;;;9.55;;
1747;SDS011;871;47.034;15.394;2022-12-28T10:09:46;52.03;;;10.20;;
1747;SDS011;871;47.034;15.394;2022-12-28T10:12:17;51.92;;;9.82;;
1747;SDS011;871;47.034;15.394;2022-12-28T10:14:44;48.80;;;9.10;;
1747;SDS011;871;47.034;15.394;2022-12-28T10:17:11;45.70;;;7.40;;
1747;SDS011;871;47.034;15.394;2022-12-28T10:19:38;43.20;;;8.02;;
1747;SDS011;871;47.034;15.394;2022-12-28T10:22:09;44.10;;;7.30;;
1747;SDS011;871;47.034;15.394;2022-12-28T10:24:38;44.23;;;7.07;;
1747;SDS011;871;47.034;15.394;2022-12-28T10:27:05;44.00;;;7.37;;
1747;SDS011;871;47.034;15.394;2022-12-28T10:29:32;44.10;;;6.80;;
1747;SDS011;871;47.034;15.394;2022-12-28T10:32:01;44.77;;;7.50;;
1747;SDS011;871;47.034;15.394;2022-12-28T10:34:28;43.97;;;8.10;;
1747;SDS011;871;47.034;15.394;2022-12-28T10:36:55;48.40;;;7.00;;
1747;SDS011;871;47.034;15.394;2022-12-28T10:41:49;43.80;;;7.07;;
1747;SDS011;871;47.034;15.394;2022-12-28T10:44:25;45.57;;;7.87;;
1747;SDS011;871;47.034;15.394;2022-12-28T10:46:54;46.60;;;7.93;;
1747;SDS011;871;47.034;15.394;2022-12-28T10:49:20;44.70;;;7.27;;
1747;SDS011;871;47.034;15.394;2022-12-28T10:52:04;44.13;;;7.07;;
1747;SDS011;871;47.034;15.394;2022-12-28T10:54:32;44.53;;;7.83;;
1747;SDS011;871;47.034;15.394;2022-12-28T10:56:58;43.67;;;7.00;;
1747;SDS011;871;47.034;15.394;2022-12-28T10:59:25;44.40;;;6.50;;
1747;SDS011;871;47.034;15.394;2022-12-28T11:01:52;44.00;;;7.83;;
1747;SDS011;871;47.034;15.394;2022-12-28T11:04:24;46.47;;;7.63;;
1747;SDS011;871;47.034;15.394;2022-12-28T11:06:57;43.07;;;6.77;;
1747;SDS011;871;47.034;15.394;2022-12-28T11:09:28;44.00;;;7.40;;
1747;SDS011;871;47.034;15.394;2022-12-28T11:11:56;45.27;;;6.53;;
1747;SDS011;871;47.034;15.394;2022-12-28T11:14:41;46.60;;;8.00;;
1747;SDS011;871;47.034;15.394;2022-12-28T11:19:39;41.57;;;5.67;;
1747;SDS011;871;47.034;15.394;2022-12-28T11:22:10;43.37;;;6.77;;
1747;SDS011;871;47.034;15.394;2022-12-28T11:24:38;42.07;;;6.73;;
1747;SDS011;871;47.034;15.394;2022-12-28T11:27:04;46.03;;;7.97;;
1747;SDS011;871;47.034;15.394;2022-12-28T11:29:30;45.97;;;7.67;;
1747;SDS011;871;47.034;15.394;2022-12-28T11:32:02;48.83;;;8.13;;
1747;SDS011;871;47.034;15.394;2022-12-28T11:34:29;44.80;;;7.30;;
1747;SDS011;871;47.034;15.394;2022-12-28T11:36:56;42.53;;;7.30;;
1747;SDS011;871;47.034;15.394;2022-12-28T11:41:57;46.10;;;9.07;;
1747;SDS011;871;47.034;15.394;2022-12-28T11:54:38;43.07;;;6.43;;
1747;SDS011;871;47.034;15.394;2022-12-28T11:57:04;44.47;;;7.97;;
1747;SDS011;871;47.034;15.394;2022-12-28T11:59:33;45.73;;;7.87;;
1747;SDS011;871;47.034;15.394;2022-12-28T12:04:50;49.50;;;7.80;;
1747;SDS011;871;47.034;15.394;2022-12-28T12:07:21;45.07;;;8.17;;
1747;SDS011;871;47.034;15.394;2022-12-28T12:09:48;43.10;;;7.40;;
1747;SDS011;871;47.034;15.394;2022-12-28T12:12:32;45.90;;;7.80;;
1747;SDS011;871;47.034;15.394;2022-12-28T12:15:02;44.07;;;7.20;;
1747;SDS011;871;47.034;15.394;2022-12-28T12:17:43;45.20;;;7.67;;
1747;SDS011;871;47.034;15.394;2022-12-28T12:20:22;41.93;;;7.70;;
1747;SDS011;871;47.034;15.394;2022-12-28T12:22:51;47.90;;;7.40;;
1747;SDS011;871;47.034;15.394;2022-12-28T12:28:00;51.00;;;7.33;;
1747;SDS011;871;47.034;15.394;2022-12-28T12:30:28;41.70;;;6.00;;
1747;SDS011;871;47.034;15.394;2022-12-28T12:35:56;41.40;;;6.30;;
1747;SDS011;871;47.034;15.394;2022-12-28T12:48:56;44.83;;;7.30;;
1747;SDS011;871;47.034;15.394;2022-12-28T12:51:29;43.30;;;6.63;;
1747;SDS011;871;47.034;15.394;2022-12-28T12:54:02;44.17;;;7.50;;
1747;SDS011;871;47.034;15.394;2022-12-28T13:01:36;41.73;;;6.57;;
1747;SDS011;871;47.034;15.394;2022-12-28T13:04:08;40.97;;;5.70;;
1747;SDS011;871;47.034;15.394;2022-12-28T13:06:39;40.97;;;6.00;;
1747;SDS011;871;47.034;15.394;2022-12-28T13:09:06;42.20;;;6.23;;
1747;SDS011;871;47.034;15.394;2022-12-28T13:11:38;43.50;;;6.83;;
1747;SDS011;871;47.034;15.394;2022-12-28T13:14:04;43.23;;;6.87;;
1747;SDS011;871;47.034;15.394;2022-12-28T13:16:31;53.47;;;5.70;;
1747;SDS011;871;47.034;15.394;2022-12-28T13:19:01;41.30;;;5.30;;
1747;SDS011;871;47.034;15.394;2022-12-28T13:21:29;43.70;;;6.23;;
1747;SDS011;871;47.034;15.394;2022-12-28T13:24:16;42.60;;;5.60;;
1747;SDS011;871;47.034;15.394;2022-12-28T13:26:43;39.77;;;5.50;;
1747;SDS011;871;47.034;15.394;2022-12-28T13:29:09;42.40;;;5.37;;
1747;SDS011;871;47.034;15.394;2022-12-28T13:31:39;41.10;;;5.93;;
1747;SDS011;871;47.034;15.394;2022-12-28T13:36:57;44.93;;;6.00;;
1747;SDS011;871;47.034;15.394;2022-12-28T13:39:26;40.47;;;5.23;;
1747;SDS011;871;47.034;15.394;2022-12-28T13:41:53;43.00;;;6.30;;
1747;SDS011;871;47.034;15.394;2022-12-28T13:44:24;43.23;;;5.47;;
1747;SDS011;871;47.034;15.394;2022-12-28T13:46:56;45.70;;;5.80;;
1747;SDS011;871;47.034;15.394;2022-12-28T13:49:23;41.77;;;6.13;;
1747;SDS011;871;47.034;15.394;2022-12-28T13:51:52;45.70;;;6.00;;
1747;SDS011;871;47.034;15.394;2022-12-28T13:54:18;41.60;;;5.50;;
1747;SDS011;871;47.034;15.394;2022-12-28T13:56:48;40.90;;;5.87;;
1747;SDS011;871;47.034;15.394;2022-12-28T13:59:15;40.60;;;5.47;;
1747;SDS011;871;47.034;15.394;2022-12-28T14:01:43;41.60;;;5.77;;
1747;SDS011;871;47.034;15.394;2022-12-28T14:04:12;41.97;;;6.50;;
1747;SDS011;871;47.034;15.394;2022-12-28T14:06:40;42.10;;;5.40;;
1747;SDS011;871;47.034;15.394;2022-12-28T14:09:11;42.70;;;5.63;;
1747;SDS011;871;47.034;15.394;2022-12-28T14:11:38;45.17;;;5.43;;
1747;SDS011;871;47.034;15.394;2022-12-28T14:14:05;43.00;;;6.33;;
1747;SDS011;871;47.034;15.394;2022-12-28T14:16:31;41.50;;;5.80;;
1747;SDS011;871;47.034;15.394;2022-12-28T14:18:57;43.63;;;6.10;;
1747;SDS011;871;47.034;15.394;2022-12-28T14:21:36;41.10;;;6.20;;
1747;SDS011;871;47.034;15.394;2022-12-28T14:24:04;44.57;;;6.67;;
1747;SDS011;871;47.034;15.394;2022-12-28T14:26:30;45.60;;;6.33;;
1747;SDS011;871;47.034;15.394;2022-12-28T14:28:56;40.90;;;5.70;;
1747;SDS011;871;47.034;15.394;2022-12-28T14:31:25;44.40;;;5.90;;
1747;SDS011;871;47.034;15.394;2022-12-28T14:33:52;45.60;;;6.03;;
1747;SDS011;871;47.034;15.394;2022-12-28T14:36:21;47.20;;;5.97;;
1747;SDS011;871;47.034;15.394;2022-12-28T14:38:50;43.27;;;6.20;;
1747;SDS011;871;47.034;15.394;2022-12-28T14:41:18;44.03;;;6.60;;
1747;SDS011;871;47.034;15.394;2022-12-28T14:43:49;42.73;;;5.93;;
1747;SDS011;871;47.034;15.394;2022-12-28T14:51:45;41.10;;;6.30;;
1747;SDS011;871;47.034;15.394;2022-12-28T14:54:16;43.17;;;6.63;;
1747;SDS011;871;47.034;15.394;2022-12-28T14:57:04;45.28;;;6.72;;
1747;SDS011;871;47.034;15.394;2022-12-28T14:59:30;41.78;;;5.78;;
1747;SDS011;871;47.034;15.394;2022-12-28T15:01:57;43.30;;;6.27;;
1747;SDS011;871;47.034;15.394;2022-12-28T15:04:39;42.20;;;6.77;;
1747;SDS011;871;47.034;15.394;2022-12-28T15:07:06;43.10;;;5.80;;
1747;SDS011;871;47.034;15.394;2022-12-28T15:09:33;43.47;;;7.15;;
1747;SDS011;871;47.034;15.394;2022-12-28T15:12:33;50.55;;;9.00;;
1747;SDS011;871;47.034;15.394;2022-12-28T15:14:52;44.13;;;8.45;;
1747;SDS011;871;47.034;15.394;2022-12-28T15:17:18;41.20;;;5.70;;
1747;SDS011;871;47.034;15.394;2022-12-28T15:19:44;43.30;;;7.00;;
1747;SDS011;871;47.034;15.394;2022-12-28T15:22:10;42.80;;;7.20;;
1747;SDS011;871;47.034;15.394;2022-12-28T15:24:36;44.15;;;7.70;;
1747;SDS011;871;47.034;15.394;2022-12-28T15:27:04;42.00;;;6.82;;
1747;SDS011;871;47.034;15.394;2022-12-28T15:29:30;43.90;;;7.85;;
1747;SDS011;871;47.034;15.394;2022-12-28T15:31:56;50.53;;;9.55;;
1747;SDS011;871;47.034;15.394;2022-12-28T15:34:22;43.75;;;8.85;;
1747;SDS011;871;47.034;15.394;2022-12-28T15:36:48;51.97;;;10.30;;
1747;SDS011;871;47.034;15.394;2022-12-28T15:39:16;48.55;;;8.20;;
1747;SDS011;871;47.034;15.394;2022-12-28T15:41:42;48.40;;;6.80;;
1747;SDS011;871;47.034;15.394;2022-12-28T15:44:12;44.92;;;8.25;;
1747;SDS011;871;47.034;15.394;2022-12-28T15:46:38;57.53;;;13.98;;
1747;SDS011;871;47.034;15.394;2022-12-28T15:49:05;55.13;;;11.23;;
1747;SDS011;871;47.034;15.394;2022-12-28T15:51:31;101.13;;;38.20;;
1747;SDS011;871;47.034;15.394;2022-12-28T15:53:57;50.90;;;10.88;;
1747;SDS011;871;47.034;15.394;2022-12-28T15:56:25;44.78;;;8.50;;
1747;SDS011;871;47.034;15.394;2022-12-28T15:58:52;47.47;;;8.90;;
1747;SDS011;871;47.034;15.394;2022-12-28T16:01:18;50.15;;;10.50;;
1747;SDS011;871;47.034;15.394;2022-12-28T16:03:47;52.75;;;11.18;;
1747;SDS011;871;47.034;15.394;2022-12-28T16:06:15;51.10;;;10.27;;
1747;SDS011;871;47.034;15.394;2022-12-28T16:08:41;58.47;;;11.85;;
1747;SDS011;871;47.034;15.394;2022-12-28T16:11:09;55.43;;;13.50;;
1747;SDS011;871;47.034;15.394;2022-12-28T16:13:38;55.25;;;12.40;;
1747;SDS011;871;47.034;15.394;2022-12-28T16:16:08;59.85;;;14.10;;
1747;SDS011;871;47.034;15.394;2022-12-28T16:18:35;57.97;;;12.00;;
1747;SDS011;871;47.034;15.394;2022-12-28T16:21:02;57.45;;;11.45;;
1747;SDS011;871;47.034;15.394;2022-12-28T16:23:29;52.25;;;11.07;;
1747;SDS011;871;47.034;15.394;2022-12-28T16:25:57;55.40;;;12.65;;
1747;SDS011;871;47.034;15.394;2022-12-28T16:28:24;48.38;;;10.30;;
1747;SDS011;871;47.034;15.394;2022-12-28T16:30:50;50.85;;;10.20;;
1747;SDS011;871;47.034;15.394;2022-12-28T16:33:16;48.80;;;9.30;;
1747;SDS011;871;47.034;15.394;2022-12-28T16:35:42;47.00;;;9.05;;
1747;SDS011;871;47.034;15.394;2022-12-28T16:38:13;47.75;;;9.98;;
1747;SDS011;871;47.034;15.394;2022-12-28T16:40:39;48.45;;;9.05;;
1747;SDS011;871;47.034;15.394;2022-12-28T16:43:05;49.10;;;8.98;;
1747;SDS011;871;47.034;15.394;2022-12-28T16:45:38;48.00;;;9.32;;
1747;SDS011;871;47.034;15.394;2022-12-28T16:48:05;50.53;;;7.97;;
1747;SDS011;871;47.034;15.394;2022-12-28T16:50:34;53.38;;;13.02;;
1747;SDS011;871;47.034;15.394;2022-12-28T16:53:00;52.25;;;10.77;;
1747;SDS011;871;47.034;15.394;2022-12-28T16:55:28;48.60;;;10.07;;
1747;SDS011;871;47.034;15.394;2022-12-28T16:57:54;51.17;;;12.68;;
1747;SDS011;871;47.034;15.394;2022-12-28T17:00:20;51.08;;;10.93;;
1747;SDS011;871;47.034;15.394;2022-12-28T17:02:46;45.20;;;9.48;;
1747;SDS011;871;47.034;15.394;2022-12-28T17:05:12;47.03;;;8.68;;
1747;SDS011;871;47.034;15.394;2022-12-28T17:07:39;46.53;;;9.77;;
1747;SDS011;871;47.034;15.394;2022-12-28T17:10:05;47.78;;;10.15;;
1747;SDS011;871;47.034;15.394;2022-12-28T17:12:32;47.97;;;9.70;;
1747;SDS011;871;47.034;15.394;2022-12-28T17:14:58;50.60;;;10.25;;
1747;SDS011;871;47.034;15.394;2022-12-28T17:17:24;50.38;;;9.68;;
1747;SDS011;871;47.034;15.394;2022-12-28T17:19:50;46.67;;;8.50;;
1747;SDS011;871;47.034;15.394;2022-12-28T17:22:16;54.78;;;10.20;;
1747;SDS011;871;47.034;15.394;2022-12-28T17:24:42;53.17;;;10.10;;
1747;SDS011;871;47.034;15.394;2022-12-28T17:27:08;47.35;;;8.50;;
1747;SDS011;871;47.034;15.394;2022-12-28T17:29:35;44.78;;;9.40;;
1747;SDS011;871;47.034;15.394;2022-12-28T17:32:02;50.08;;;9.30;;
1747;SDS011;871;47.034;15.394;2022-12-28T17:34:28;48.78;;;9.18;;
1747;SDS011;871;47.034;15.394;2022-12-28T17:36:54;43.47;;;7.80;;
1747;SDS011;871;47.034;15.394;2022-12-28T17:39:20;46.75;;;9.27;;
1747;SDS011;871;47.034;15.394;2022-12-28T17:41:46;48.85;;;8.50;;
1747;SDS011;871;47.034;15.394;2022-12-28T17:44:12;44.85;;;8.57;;
1747;SDS011;871;47.034;15.394;2022-12-28T17:46:39;44.55;;;8.25;;
1747;SDS011;871;47.034;15.394;2022-12-28T17:49:06;47.92;;;7.68;;
1747;SDS011;871;47.034;15.394;2022-12-28T17:51:35;46.72;;;8.27;;
1747;SDS011;871;47.034;15.394;2022-12-28T17:54:01;45.60;;;8.43;;
1747;SDS011;871;47.034;15.394;2022-12-28T17:56:27;50.03;;;8.98;;
1747;SDS011;871;47.034;15.394;2022-12-28T17:58:54;46.47;;;9.35;;
1747;SDS011;871;47.034;15.394;2022-12-28T18:01:20;49.63;;;10.73;;
1747;SDS011;871;47.034;15.394;2022-12-28T18:03:46;48.35;;;8.95;;
1747;SDS011;871;47.034;15.394;2022-12-28T18:06:12;47.45;;;10.15;;
1747;SDS011;871;47.034;15.394;2022-12-28T18:08:40;56.83;;;12.93;;
1747;SDS011;871;47.034;15.394;2022-12-28T18:11:06;46.10;;;9.35;;
1747;SDS011;871;47.034;15.394;2022-12-28T18:13:35;51.58;;;11.35;;
1747;SDS011;871;47.034;15.394;2022-12-28T18:16:02;47.65;;;9.48;;
1747;SDS011;871;47.034;15.394;2022-12-28T18:18:29;47.20;;;9.70;;
1747;SDS011;871;47.034;15.394;2022-12-28T18:20:59;49.10;;;10.00;;
1747;SDS011;871;47.034;15.394;2022-12-28T18:23:26;50.90;;;10.70;;
1747;SDS011;871;47.034;15.394;2022-12-28T18:26:03;47.47;;;9.30;;
1747;SDS011;871;47.034;15.394;2022-12-28T18:28:30;46.28;;;9.63;;
1747;SDS011;871;47.034;15.394;2022-12-28T18:30:58;49.00;;;10.02;;
1747;SDS011;871;47.034;15.394;2022-12-28T18:33:24;49.90;;;10.88;;
1747;SDS011;871;47.034;15.394;2022-12-28T18:35:51;50.15;;;10.13;;
1747;SDS011;871;47.034;15.394;2022-12-28T18:38:18;51.85;;;9.65;;
1747;SDS011;871;47.034;15.394;2022-12-28T18:40:51;49.30;;;11.18;;
1747;SDS011;871;47.034;15.394;2022-12-28T18:43:17;47.58;;;10.15;;
1747;SDS011;871;47.034;15.394;2022-12-28T18:45:49;46.65;;;9.05;;
1747;SDS011;871;47.034;15.394;2022-12-28T18:48:17;48.47;;;9.38;;
1747;SDS011;871;47.034;15.394;2022-12-28T18:53:22;55.55;;;10.90;;
1747;SDS011;871;47.034;15.394;2022-12-28T18:55:55;52.97;;;13.93;;
1747;SDS011;871;47.034;15.394;2022-12-28T18:58:21;53.40;;;12.85;;
1747;SDS011;871;47.034;15.394;2022-12-28T19:00:47;51.80;;;13.27;;
1747;SDS011;871;47.034;15.394;2022-12-28T19:03:13;53.00;;;14.32;;
1747;SDS011;871;47.034;15.394;2022-12-28T19:05:39;56.88;;;13.50;;
1747;SDS011;871;47.034;15.394;2022-12-28T19:08:05;50.95;;;13.15;;
1747;SDS011;871;47.034;15.394;2022-12-28T19:10:32;56.25;;;16.23;;
1747;SDS011;871;47.034;15.394;2022-12-28T19:12:58;54.15;;;13.65;;
1747;SDS011;871;47.034;15.394;2022-12-28T19:15:24;55.75;;;14.65;;
1747;SDS011;871;47.034;15.394;2022-12-28T19:17:50;53.83;;;11.40;;
1747;SDS011;871;47.034;15.394;2022-12-28T19:20:16;60.80;;;12.00;;
1747;SDS011;871;47.034;15.394;2022-12-28T19:22:42;52.25;;;13.00;;
1747;SDS011;871;47.034;15.394;2022-12-28T19:25:08;55.35;;;12.43;;
1747;SDS011;871;47.034;15.394;2022-12-28T19:27:35;49.58;;;10.80;;
1747;SDS011;871;47.034;15.394;2022-12-28T19:30:01;56.60;;;12.38;;
1747;SDS011;871;47.034;15.394;2022-12-28T19:32:28;48.35;;;11.82;;
1747;SDS011;871;47.034;15.394;2022-12-28T19:34:54;50.67;;;11.55;;
1747;SDS011;871;47.034;15.394;2022-12-28T19:37:20;47.05;;;10.50;;
1747;SDS011;871;47.034;15.394;2022-12-28T19:39:48;49.83;;;11.25;;
1747;SDS011;871;47.034;15.394;2022-12-28T19:42:14;46.47;;;10.82;;
1747;SDS011;871;47.034;15.394;2022-12-28T19:44:40;49.70;;;12.30;;
1747;SDS011;871;47.034;15.394;2022-12-28T19:47:06;52.70;;;11.68;;
1747;SDS011;871;47.034;15.394;2022-12-28T19:49:32;55.58;;;13.75;;
1747;SDS011;871;47.034;15.394;2022-12-28T19:51:58;55.47;;;14.70;;
1747;SDS011;871;47.034;15.394;2022-12-28T19:54:26;53.63;;;12.50;;
1747;SDS011;871;47.034;15.394;2022-12-28T19:56:54;60.03;;;17.98;;
1747;SDS011;871;47.034;15.394;2022-12-28T19:59:22;56.47;;;15.77;;
1747;SDS011;871;47.034;15.394;2022-12-28T20:01:49;55.33;;;15.10;;
1747;SDS011;871;47.034;15.394;2022-12-28T20:04:17;50.40;;;13.23;;
1747;SDS011;871;47.034;15.394;2022-12-28T20:06:43;50.90;;;12.13;;
1747;SDS011;871;47.034;15.394;2022-12-28T20:09:10;51.35;;;11.85;;
1747;SDS011;871;47.034;15.394;2022-12-28T20:11:36;56.15;;;13.15;;
1747;SDS011;871;47.034;15.394;2022-12-28T20:14:03;50.92;;;13.40;;
1747;SDS011;871;47.034;15.394;2022-12-28T20:16:30;54.80;;;15.10;;
1747;SDS011;871;47.034;15.394;2022-12-28T20:19:00;58.53;;;15.27;;
1747;SDS011;871;47.034;15.394;2022-12-28T20:21:26;56.50;;;16.35;;
1747;SDS011;871;47.034;15.394;2022-12-28T20:23:54;59.75;;;16.75;;
1747;SDS011;871;47.034;15.394;2022-12-28T20:26:21;52.38;;;12.95;;
1747;SDS011;871;47.034;15.394;2022-12-28T20:28:48;47.58;;;11.18;;
1747;SDS011;871;47.034;15.394;2022-12-28T20:31:16;47.65;;;11.63;;
1747;SDS011;871;47.034;15.394;2022-12-28T20:33:42;53.53;;;14.20;;
1747;SDS011;871;47.034;15.394;2022-12-28T20:36:14;50.63;;;10.13;;
1747;SDS011;871;47.034;15.394;2022-12-28T20:38:40;47.50;;;9.98;;
1747;SDS011;871;47.034;15.394;2022-12-28T20:41:08;46.03;;;9.23;;
1747;SDS011;871;47.034;15.394;2022-12-28T20:43:34;41.88;;;8.98;;
1747;SDS011;871;47.034;15.394;2022-12-28T20:46:01;46.35;;;11.88;;
1747;SDS011;871;47.034;15.394;2022-12-28T20:48:27;46.28;;;9.00;;
1747;SDS011;871;47.034;15.394;2022-12-28T20:50:54;46.47;;;9.63;;
1747;SDS011;871;47.034;15.394;2022-12-28T20:53:21;49.33;;;10.13;;
1747;SDS011;871;47.034;15.394;2022-12-28T20:55:47;51.40;;;11.93;;
1747;SDS011;871;47.034;15.394;2022-12-28T20:58:13;49.85;;;10.73;;
1747;SDS011;871;47.034;15.394;2022-12-28T21:00:40;46.35;;;10.75;;
1747;SDS011;871;47.034;15.394;2022-12-28T21:03:06;50.17;;;10.40;;
1747;SDS011;871;47.034;15.394;2022-12-28T21:05:32;48.83;;;11.60;;
1747;SDS011;871;47.034;15.394;2022-12-28T21:07:58;48.25;;;11.32;;
1747;SDS011;871;47.034;15.394;2022-12-28T21:10:24;47.85;;;10.90;;